Time;durP1;ratioP1;P1;durP2;ratioP2;P2;SDS_P1;SDS_P2;PMS_P1;PMS_P2;Temp;Humidity;BMP_temperature;BMP_pressure;BME280_temperature;BME280_humidity;BME280_pressure;Samples;Min_cycle;Max_cycle;Signal;HPM_P1;HPM_P2
2022/07/03 00:00:29;;;;;;;;;;;23.10;82.80;;;;;;5025739;28;19917;-72
2022/07/03 00:02:55;;;;;;;;;;;23.20;82.20;;;;;;5022113;28;20281;-72
2022/07/03 00:05:20;;;;;;;;;;;23.20;81.80;;;;;;5025673;28;19928;-72
2022/07/03 00:07:46;;;;;;;;;;;23.20;82.90;;;;;;5028677;28;19914;-73
2022/07/03 00:10:11;;;;;;;;;;;23.10;82.10;;;;;;5025595;28;19913;-72
2022/07/03 00:12:37;;;;;;;;;;;23.10;81.60;;;;;;5020263;28;20386;-72
2022/07/03 00:15:03;;;;;;;;;;;23.10;82.10;;;;;;5011707;28;20025;-72
2022/07/03 00:17:28;;;;;;;;;;;23.10;81.80;;;;;;5029224;28;19932;-73
2022/07/03 00:19:54;;;;;;;;;;;23.10;81.50;;;;;;5014350;28;20301;-72
2022/07/03 00:22:20;;;;;;;;;;;23.20;81.50;;;;;;5029285;28;19920;-72
2022/07/03 00:24:49;;;;;;;;;;;23.10;82.20;;;;;;5029454;28;19913;-72
2022/07/03 00:27:16;;;;;;;;;;;23.10;82.10;;;;;;5030844;28;19913;-72
2022/07/03 00:29:42;;;;;;;;;;;23.20;82.20;;;;;;5030742;28;19913;-72
2022/07/03 00:32:09;;;;;;;;;;;23.20;82.80;;;;;;5030705;28;19971;-72
2022/07/03 00:34:35;;;;;;;;;;;23.20;82.60;;;;;;5035034;28;19909;-72
2022/07/03 00:37:01;;;;;;;;;;;23.20;82.70;;;;;;5024669;28;20016;-72
2022/07/03 00:39:27;;;;;;;;;;;23.20;82.90;;;;;;5028769;28;19913;-72
2022/07/03 00:42:03;;;;;;;;;;;23.20;83.00;;;;;;5032300;28;19917;-72
2022/07/03 00:44:29;;;;;;;;;;;23.10;83.40;;;;;;5020666;28;19913;-72
2022/07/03 00:46:55;;;;;;;;;;;23.10;83.30;;;;;;5034310;28;19913;-72
2022/07/03 00:49:22;;;;;;;;;;;23.10;82.00;;;;;;5034753;28;19909;-72
2022/07/03 00:51:50;;;;;;;;;;;23.00;82.80;;;;;;5032838;28;19921;-72
2022/07/03 00:54:17;;;;;;;;;;;23.00;83.40;;;;;;5034020;28;19955;-72
2022/07/03 00:56:46;;;;;;;;;;;23.00;84.80;;;;;;5034316;28;19917;-73
2022/07/03 00:59:11;;;;;;;;;;;22.90;84.00;;;;;;5033997;28;19974;-73
2022/07/03 01:01:39;;;;;;;;;;;22.80;84.30;;;;;;5031837;28;19917;-72
2022/07/03 01:04:04;;;;;;;;;;;22.80;84.20;;;;;;5033025;28;19959;-72
2022/07/03 01:06:32;;;;;;;;;;;22.80;84.80;;;;;;5033779;28;20314;-72
2022/07/03 01:09:01;;;;;;;;;;;22.70;85.40;;;;;;5033592;28;19917;-72
2022/07/03 01:11:36;;;;;;;;;;;22.70;85.70;;;;;;5034432;28;19913;-72
2022/07/03 01:14:20;;;;;;;;;;;22.60;86.30;;;;;;5034694;28;19931;-72
2022/07/03 01:16:59;;;;;;;;;;;22.50;87.00;;;;;;5030242;28;19923;-72
2022/07/03 01:19:27;;;;;;;;;;;22.50;87.80;;;;;;5034010;28;19913;-72
2022/07/03 01:21:53;;;;;;;;;;;22.30;88.20;;;;;;5033417;28;19920;-71
2022/07/03 01:24:22;;;;;;;;;;;22.10;89.30;;;;;;5033766;28;19917;-72
2022/07/03 01:26:48;;;;;;;;;;;22.00;90.20;;;;;;5034230;28;20302;-72
2022/07/03 01:29:16;;;;;;;;;;;21.90;90.70;;;;;;5018102;28;19952;-71
2022/07/03 01:31:42;;;;;;;;;;;21.90;90.60;;;;;;5029636;28;19910;-71
2022/07/03 01:34:12;;;;;;;;;;;21.80;90.90;;;;;;5033122;28;19913;-71
2022/07/03 01:36:40;;;;;;;;;;;21.80;90.80;;;;;;5033427;28;19939;-72
2022/07/03 01:39:07;;;;;;;;;;;21.70;90.90;;;;;;5033621;28;19921;-72
2022/07/03 01:41:33;;;;;;;;;;;21.60;90.80;;;;;;5029326;28;19967;-72
2022/07/03 01:44:01;;;;;;;;;;;21.60;91.40;;;;;;5030525;28;20012;-71
2022/07/03 01:46:28;;;;;;;;;;;21.60;91.40;;;;;;5017968;28;20377;-71
2022/07/03 01:48:54;;;;;;;;;;;21.50;91.60;;;;;;5031011;28;19913;-72
2022/07/03 01:51:20;;;;;;;;;;;21.50;92.00;;;;;;5031688;28;19996;-72
2022/07/03 01:53:47;;;;;;;;;;;21.50;92.20;;;;;;5024135;28;19917;-71
2022/07/03 01:56:13;;;;;;;;;;;21.50;92.40;;;;;;5017436;28;19927;-71
2022/07/03 01:58:39;;;;;;;;;;;21.50;92.40;;;;;;5031669;28;20433;-71
2022/07/03 02:01:15;;;;;;;;;;;21.40;92.40;;;;;;5031994;28;19996;-71
2022/07/03 02:03:46;;;;;;;;;;;21.40;92.40;;;;;;5033303;28;19912;-71
2022/07/03 02:06:13;;;;;;;;;;;21.40;92.30;;;;;;5032899;28;19917;-72
2022/07/03 02:08:50;;;;;;;;;;;21.40;92.40;;;;;;5033188;28;19920;-71
2022/07/03 02:11:17;;;;;;;;;;;21.50;92.30;;;;;;5017416;28;19967;-72
2022/07/03 02:13:55;;;;;;;;;;;21.40;92.30;;;;;;5028939;28;19910;-72
2022/07/03 02:16:23;;;;;;;;;;;21.50;92.20;;;;;;5032545;28;19913;-71
2022/07/03 02:19:05;;;;;;;;;;;21.50;92.00;;;;;;5027385;28;19992;-71
2022/07/03 02:21:31;;;;;;;;;;;21.50;92.30;;;;;;5026939;28;19913;-71
2022/07/03 02:23:59;;;;;;;;;;;21.40;91.80;;;;;;5032474;28;20263;-71
2022/07/03 02:26:29;;;;;;;;;;;21.50;91.80;;;;;;5031024;28;20000;-72
2022/07/03 02:29:03;;;;;;;;;;;21.50;92.10;;;;;;5029454;28;19916;-71
2022/07/03 02:31:32;;;;;;;;;;;21.50;92.10;;;;;;5018471;28;19913;-71
2022/07/03 02:33:58;;;;;;;;;;;21.50;92.00;;;;;;5022095;28;20008;-71
2022/07/03 02:36:26;;;;;;;;;;;21.40;92.80;;;;;;5025941;28;19921;-72
2022/07/03 02:38:55;;;;;;;;;;;21.50;92.90;;;;;;5029760;28;19924;-72
2022/07/03 02:41:28;;;;;;;;;;;21.40;93.70;;;;;;5017035;28;19964;-71
2022/07/03 02:44:07;;;;;;;;;;;21.30;94.00;;;;;;5032686;28;20012;-72
2022/07/03 02:46:52;;;;;;;;;;;21.10;94.50;;;;;;5032326;28;19955;-71
2022/07/03 02:49:24;;;;;;;;;;;21.10;94.90;;;;;;5020673;28;20007;-71
2022/07/03 02:52:10;;;;;;;;;;;21.20;94.90;;;;;;5029272;28;19913;-72
2022/07/03 02:54:45;;;;;;;;;;;21.20;94.60;;;;;;5024686;28;19920;-71
2022/07/03 02:57:12;;;;;;;;;;;21.30;94.10;;;;;;5031829;28;19971;-71
2022/07/03 02:59:54;;;;;;;;;;;21.50;93.60;;;;;;5028986;28;19920;-72
2022/07/03 03:02:20;;;;;;;;;;;21.50;93.40;;;;;;5016782;28;20397;-72
2022/07/03 03:04:48;;;;;;;;;;;21.50;93.50;;;;;;5032679;28;19976;-72
2022/07/03 03:07:15;;;;;;;;;;;21.50;93.60;;;;;;5031968;28;20398;-72
2022/07/03 03:09:42;;;;;;;;;;;21.50;93.60;;;;;;5031654;28;20294;-71
2022/07/03 03:12:08;;;;;;;;;;;21.50;93.70;;;;;;5029116;28;19959;-72
2022/07/03 03:14:43;;;;;;;;;;;21.50;93.50;;;;;;5018765;28;19914;-72
2022/07/03 03:17:13;;;;;;;;;;;21.50;93.50;;;;;;5031680;28;19921;-72
2022/07/03 03:19:43;;;;;;;;;;;21.60;93.20;;;;;;5032251;28;19913;-72
2022/07/03 03:22:23;;;;;;;;;;;21.60;93.60;;;;;;5025198;28;19956;-72
2022/07/03 03:24:49;;;;;;;;;;;21.30;94.10;;;;;;5028333;28;19913;-72
2022/07/03 03:27:15;;;;;;;;;;;21.10;94.40;;;;;;5027083;28;20336;-72
2022/07/03 03:29:41;;;;;;;;;;;21.20;94.50;;;;;;5031680;28;19917;-71
2022/07/03 03:32:06;;;;;;;;;;;20.90;94.80;;;;;;5015510;28;19909;-72
2022/07/03 03:34:32;;;;;;;;;;;20.90;95.40;;;;;;5032143;28;19913;-71
2022/07/03 03:36:58;;;;;;;;;;;20.90;95.20;;;;;;5031358;28;20278;-72
2022/07/03 03:39:24;;;;;;;;;;;20.90;95.50;;;;;;5031222;28;20349;-72
2022/07/03 03:41:50;;;;;;;;;;;20.90;95.80;;;;;;5030863;28;19928;-72
2022/07/03 03:44:15;;;;;;;;;;;20.80;96.10;;;;;;5032054;28;19913;-72
2022/07/03 03:46:41;;;;;;;;;;;20.80;96.30;;;;;;5032005;28;19909;-71
2022/07/03 03:49:07;;;;;;;;;;;20.70;96.60;;;;;;5031417;28;20397;-71
2022/07/03 03:51:32;;;;;;;;;;;20.60;97.00;;;;;;5025653;28;20298;-72
2022/07/03 03:53:58;;;;;;;;;;;20.60;96.60;;;;;;5021655;28;19913;-72
2022/07/03 03:56:23;;;;;;;;;;;20.60;96.90;;;;;;5031000;28;19975;-71
2022/07/03 03:58:49;;;;;;;;;;;20.60;97.00;;;;;;5029272;28;19917;-72
2022/07/03 04:01:15;;;;;;;;;;;20.60;96.90;;;;;;5031760;28;19939;-71
2022/07/03 04:03:41;;;;;;;;;;;20.50;97.00;;;;;;5031652;28;19909;-72
2022/07/03 04:06:06;;;;;;;;;;;20.50;97.20;;;;;;5031155;28;19920;-72
2022/07/03 04:08:32;;;;;;;;;;;20.50;97.50;;;;;;5034174;28;19909;-71
2022/07/03 04:10:58;;;;;;;;;;;20.50;97.60;;;;;;5033275;28;19913;-72
2022/07/03 04:13:23;;;;;;;;;;;20.50;97.70;;;;;;5032585;28;19915;-72
2022/07/03 04:15:49;;;;;;;;;;;20.50;97.90;;;;;;5034842;28;20358;-72
2022/07/03 04:18:15;;;;;;;;;;;20.50;98.20;;;;;;5035149;28;19921;-71
2022/07/03 04:20:41;;;;;;;;;;;20.60;98.30;;;;;;5035219;28;20404;-71
2022/07/03 04:23:06;;;;;;;;;;;20.60;98.20;;;;;;5035032;28;19910;-72
2022/07/03 04:25:32;;;;;;;;;;;20.60;98.00;;;;;;5034005;28;19913;-71
2022/07/03 04:27:57;;;;;;;;;;;20.50;98.30;;;;;;5035192;28;20381;-71
2022/07/03 04:30:23;;;;;;;;;;;20.50;98.20;;;;;;5030361;28;19917;-72
2022/07/03 04:32:50;;;;;;;;;;;20.60;97.60;;;;;;5023640;28;19920;-71
2022/07/03 04:35:15;;;;;;;;;;;20.50;97.70;;;;;;5035045;28;19921;-71
2022/07/03 04:37:41;;;;;;;;;;;20.60;97.90;;;;;;5035295;28;20393;-72
2022/07/03 04:40:07;;;;;;;;;;;20.60;97.70;;;;;;5034261;28;19913;-71
2022/07/03 04:42:33;;;;;;;;;;;20.60;97.40;;;;;;5034605;28;19921;-72
2022/07/03 04:44:58;;;;;;;;;;;20.60;96.80;;;;;;5034774;28;20394;-72
2022/07/03 04:47:24;;;;;;;;;;;20.60;95.80;;;;;;5034280;28;19917;-71
2022/07/03 04:49:49;;;;;;;;;;;20.70;96.00;;;;;;5034962;28;19956;-72
2022/07/03 04:52:17;;;;;;;;;;;20.70;95.60;;;;;;5034705;28;19917;-71
2022/07/03 04:54:43;;;;;;;;;;;20.70;95.50;;;;;;5034242;28;19913;-72
2022/07/03 04:57:08;;;;;;;;;;;20.70;95.40;;;;;;5034183;28;19925;-72
2022/07/03 04:59:34;;;;;;;;;;;20.80;95.60;;;;;;5032160;28;19972;-71
2022/07/03 05:01:59;;;;;;;;;;;20.80;95.60;;;;;;5030210;28;19913;-72
2022/07/03 05:04:26;;;;;;;;;;;20.70;95.80;;;;;;5034902;28;20362;-71
2022/07/03 05:06:51;;;;;;;;;;;20.70;95.30;;;;;;5034152;28;19909;-72
2022/07/03 05:09:18;;;;;;;;;;;20.70;95.40;;;;;;5030286;28;20329;-71
2022/07/03 05:11:44;;;;;;;;;;;20.70;95.70;;;;;;5020908;28;20393;-71
2022/07/03 05:14:09;;;;;;;;;;;20.80;96.00;;;;;;5034555;28;19925;-71
2022/07/03 05:16:35;;;;;;;;;;;20.80;95.60;;;;;;5034711;28;19915;-72
2022/07/03 05:19:00;;;;;;;;;;;20.90;95.20;;;;;;5032846;28;20386;-71
2022/07/03 05:21:26;;;;;;;;;;;20.90;95.60;;;;;;5034024;28;19921;-71
2022/07/03 05:23:52;;;;;;;;;;;21.00;95.50;;;;;;5033606;28;19952;-72
2022/07/03 05:26:18;;;;;;;;;;;21.00;95.40;;;;;;5034004;28;19917;-71
2022/07/03 05:28:43;;;;;;;;;;;21.10;95.30;;;;;;5034915;28;19948;-71
2022/07/03 05:31:09;;;;;;;;;;;21.10;94.90;;;;;;5033658;28;19936;-71
2022/07/03 05:33:34;;;;;;;;;;;21.10;95.00;;;;;;5033791;28;20011;-72
2022/07/03 05:36:00;;;;;;;;;;;21.10;94.80;;;;;;5033610;28;19913;-71
2022/07/03 05:41:10;;;;;;;;;;;21.40;94.90;;;;;;5034304;28;20036;-71
2022/07/03 05:43:36;;;;;;;;;;;21.40;95.20;;;;;;5033546;28;20016;-71
2022/07/03 05:46:02;;;;;;;;;;;21.40;94.90;;;;;;5033833;28;19913;-72
2022/07/03 05:48:28;;;;;;;;;;;21.50;95.40;;;;;;5028385;28;19921;-72
2022/07/03 05:50:54;;;;;;;;;;;21.50;94.60;;;;;;5021496;28;19917;-72
2022/07/03 05:53:19;;;;;;;;;;;21.60;94.50;;;;;;5021224;28;20409;-71
2022/07/03 05:55:45;;;;;;;;;;;21.70;94.70;;;;;;5034345;28;20021;-72
2022/07/03 05:58:11;;;;;;;;;;;21.80;94.30;;;;;;5033178;28;19921;-71
2022/07/03 06:00:36;;;;;;;;;;;21.90;94.40;;;;;;5033291;28;19917;-71
2022/07/03 06:03:02;;;;;;;;;;;21.90;94.30;;;;;;5033601;28;19921;-72
2022/07/03 06:05:28;;;;;;;;;;;22.00;94.30;;;;;;5025890;28;20092;-71
2022/07/03 06:07:53;;;;;;;;;;;22.10;94.00;;;;;;5033573;28;20366;-71
2022/07/03 06:10:19;;;;;;;;;;;22.20;93.20;;;;;;5033865;28;20012;-71
2022/07/03 06:12:45;;;;;;;;;;;22.20;93.30;;;;;;5033076;28;20373;-71
2022/07/03 06:15:10;;;;;;;;;;;22.20;93.50;;;;;;5032899;28;19917;-72
2022/07/03 06:17:36;;;;;;;;;;;22.30;93.80;;;;;;5032888;28;20289;-72
2022/07/03 06:20:03;;;;;;;;;;;22.30;93.10;;;;;;5030932;28;19920;-71
2022/07/03 06:22:28;;;;;;;;;;;22.40;92.70;;;;;;5017762;28;19977;-71
2022/07/03 06:24:54;;;;;;;;;;;22.50;92.60;;;;;;5029767;28;19913;-72
2022/07/03 06:27:19;;;;;;;;;;;22.50;92.50;;;;;;5029376;28;19914;-71
2022/07/03 06:29:45;;;;;;;;;;;22.60;92.70;;;;;;5020636;28;20282;-72
2022/07/03 06:32:10;;;;;;;;;;;22.70;92.60;;;;;;5032414;28;19913;-71
2022/07/03 06:34:36;;;;;;;;;;;22.70;92.40;;;;;;5033229;28;19952;-72
2022/07/03 06:37:02;;;;;;;;;;;22.70;92.10;;;;;;5032035;28;19913;-72
2022/07/03 06:39:27;;;;;;;;;;;22.80;92.40;;;;;;5032408;28;19919;-71
2022/07/03 06:41:53;;;;;;;;;;;22.90;91.80;;;;;;5031364;28;20010;-72
2022/07/03 06:44:18;;;;;;;;;;;22.90;91.90;;;;;;5016981;28;19913;-71
2022/07/03 06:46:44;;;;;;;;;;;23.10;91.70;;;;;;5032880;28;19932;-72
2022/07/03 06:49:09;;;;;;;;;;;23.10;91.50;;;;;;5031822;28;19921;-71
2022/07/03 06:51:35;;;;;;;;;;;23.20;91.70;;;;;;5032493;28;19959;-71
2022/07/03 06:54:01;;;;;;;;;;;23.30;91.30;;;;;;5032526;28;19913;-72
2022/07/03 06:56:27;;;;;;;;;;;23.40;91.10;;;;;;5032102;28;19920;-72
2022/07/03 06:58:52;;;;;;;;;;;23.40;91.20;;;;;;5032306;28;19913;-77
2022/07/03 07:01:18;;;;;;;;;;;23.50;90.60;;;;;;5032656;28;19915;-73
2022/07/03 07:03:43;;;;;;;;;;;23.60;90.40;;;;;;5027329;28;20497;-74
2022/07/03 07:06:09;;;;;;;;;;;23.60;90.20;;;;;;5020655;28;19939;-79
2022/07/03 07:08:34;;;;;;;;;;;23.70;89.80;;;;;;5016698;28;19921;-77
2022/07/03 07:11:00;;;;;;;;;;;23.80;89.90;;;;;;5018757;28;19910;-76
2022/07/03 07:13:26;;;;;;;;;;;23.80;89.10;;;;;;5019652;28;19914;-76
2022/07/03 07:15:51;;;;;;;;;;;23.90;88.40;;;;;;5031246;28;19917;-77
2022/07/03 07:18:17;;;;;;;;;;;23.90;88.20;;;;;;5026790;28;19928;-76
2022/07/03 07:20:42;;;;;;;;;;;24.00;87.80;;;;;;5031639;28;19924;-76
2022/07/03 07:23:11;;;;;;;;;;;24.10;87.10;;;;;;5027474;28;20363;-77
2022/07/03 07:25:36;;;;;;;;;;;24.10;86.50;;;;;;5031687;28;19909;-76
2022/07/03 07:28:02;;;;;;;;;;;24.20;85.90;;;;;;5029786;28;20274;-76
2022/07/03 07:30:28;;;;;;;;;;;24.20;85.30;;;;;;5031174;28;19913;-75
2022/07/03 07:32:53;;;;;;;;;;;24.30;83.80;;;;;;5026223;28;19952;-76
2022/07/03 07:35:19;;;;;;;;;;;24.30;82.70;;;;;;5031647;28;19914;-76
2022/07/03 07:37:44;;;;;;;;;;;24.40;83.00;;;;;;5032193;28;19921;-76
2022/07/03 07:40:10;;;;;;;;;;;24.50;82.00;;;;;;5031310;28;19913;-76
2022/07/03 07:42:36;;;;;;;;;;;24.40;82.60;;;;;;5030856;28;19948;-76
2022/07/03 07:45:01;;;;;;;;;;;24.50;81.60;;;;;;5030237;28;19992;-77
2022/07/03 07:47:27;;;;;;;;;;;24.50;82.80;;;;;;5016722;28;20392;-77
2022/07/03 07:49:52;;;;;;;;;;;24.50;82.70;;;;;;5031049;28;19909;-77
2022/07/03 07:52:18;;;;;;;;;;;24.70;80.40;;;;;;5031754;28;19955;-76
2022/07/03 07:54:44;;;;;;;;;;;24.80;80.10;;;;;;5031288;28;19921;-77
2022/07/03 07:57:09;;;;;;;;;;;24.80;79.10;;;;;;5025463;28;20063;-78
2022/07/03 07:59:35;;;;;;;;;;;24.80;78.30;;;;;;5022839;28;19913;-77
2022/07/03 08:07:33;;;;;;;;;;;24.90;77.80;;;;;;4984731;28;20454;-78
2022/07/03 08:09:59;;;;;;;;;;;25.10;77.90;;;;;;4982531;28;19961;-77
2022/07/03 08:12:24;;;;;;;;;;;25.00;78.40;;;;;;4982776;28;20393;-79
2022/07/03 08:14:50;;;;;;;;;;;25.10;74.60;;;;;;4980633;28;20333;-78
2022/07/03 08:17:15;;;;;;;;;;;25.10;76.60;;;;;;4982339;28;19988;-76
2022/07/03 08:19:41;;;;;;;;;;;25.20;77.90;;;;;;4983278;28;19918;-76
2022/07/03 08:22:06;;;;;;;;;;;25.20;75.70;;;;;;4982264;28;19925;-78
2022/07/03 08:24:32;;;;;;;;;;;25.20;75.20;;;;;;4984059;28;19914;-79
2022/07/03 08:26:58;;;;;;;;;;;25.30;76.30;;;;;;4983372;28;19917;-76
2022/07/03 08:29:23;;;;;;;;;;;25.30;76.00;;;;;;4983417;28;20768;-75
2022/07/03 08:31:49;;;;;;;;;;;25.40;74.90;;;;;;4973533;28;19918;-75
2022/07/03 08:34:15;;;;;;;;;;;25.60;73.90;;;;;;4983368;28;20418;-76
2022/07/03 08:36:41;;;;;;;;;;;25.50;75.10;;;;;;4985218;28;19918;-72
2022/07/03 08:39:07;;;;;;;;;;;25.50;76.60;;;;;;4982949;28;20514;-72
2022/07/03 08:41:32;;;;;;;;;;;25.90;71.10;;;;;;4984166;28;20000;-77
2022/07/03 08:43:59;;;;;;;;;;;25.90;71.20;;;;;;5027235;28;20297;-72
2022/07/03 08:46:25;;;;;;;;;;;25.90;72.20;;;;;;5012635;28;19913;-72
2022/07/03 08:48:52;;;;;;;;;;;25.90;71.30;;;;;;5021467;28;19921;-72
2022/07/03 08:51:19;;;;;;;;;;;26.00;71.90;;;;;;5024083;28;19917;-70
2022/07/03 08:53:46;;;;;;;;;;;26.00;70.60;;;;;;5025882;28;19917;-73
2022/07/03 08:56:11;;;;;;;;;;;26.20;70.60;;;;;;5029339;28;19921;-78
2022/07/03 08:58:37;;;;;;;;;;;26.20;70.30;;;;;;5030293;28;19921;-72
2022/07/03 09:01:03;;;;;;;;;;;26.20;70.00;;;;;;5027667;28;19912;-71
2022/07/03 09:03:30;;;;;;;;;;;26.30;69.60;;;;;;5028283;28;19913;-75
2022/07/03 09:05:57;;;;;;;;;;;26.40;69.10;;;;;;5023461;28;19913;-76
2022/07/03 09:08:23;;;;;;;;;;;26.30;71.10;;;;;;5024503;28;20382;-77
2022/07/03 09:10:49;;;;;;;;;;;26.20;70.20;;;;;;5029750;28;19944;-78
2022/07/03 09:13:15;;;;;;;;;;;26.50;70.30;;;;;;5030184;28;20433;-71
2022/07/03 09:15:40;;;;;;;;;;;26.40;70.90;;;;;;5032281;28;19971;-74
2022/07/03 09:18:07;;;;;;;;;;;26.40;71.10;;;;;;5032992;28;20371;-72
2022/07/03 09:20:40;;;;;;;;;;;26.50;71.40;;;;;;5033878;28;20290;-74
2022/07/03 09:23:09;;;;;;;;;;;26.70;70.00;;;;;;5033557;28;19916;-72
2022/07/03 09:25:35;;;;;;;;;;;27.00;69.00;;;;;;5034051;28;19914;-71
2022/07/03 09:28:00;;;;;;;;;;;27.00;69.20;;;;;;5026118;28;19913;-71
2022/07/03 09:30:26;;;;;;;;;;;27.10;68.80;;;;;;5026429;28;19913;-71
2022/07/03 09:32:52;;;;;;;;;;;26.90;69.50;;;;;;5033489;28;19941;-72
2022/07/03 09:35:18;;;;;;;;;;;26.80;69.60;;;;;;5033706;28;19966;-72
2022/07/03 09:37:54;;;;;;;;;;;26.80;70.80;;;;;;5033916;28;19921;-73
2022/07/03 09:40:20;;;;;;;;;;;27.10;72.90;;;;;;5021329;28;19921;-73
2022/07/03 09:42:58;;;;;;;;;;;27.00;70.20;;;;;;5021790;28;20401;-73
2022/07/03 09:45:24;;;;;;;;;;;27.10;70.60;;;;;;5022172;28;19913;-73
2022/07/03 09:47:49;;;;;;;;;;;27.20;71.00;;;;;;5032782;28;20255;-73
2022/07/03 09:50:15;;;;;;;;;;;27.20;70.80;;;;;;5032859;28;19936;-72
2022/07/03 09:52:40;;;;;;;;;;;27.20;71.00;;;;;;5033717;28;19998;-72
2022/07/03 09:55:09;;;;;;;;;;;27.30;70.90;;;;;;5031429;28;20400;-72
2022/07/03 09:57:35;;;;;;;;;;;27.50;71.20;;;;;;5032253;28;19932;-72
2022/07/03 10:00:16;;;;;;;;;;;27.50;71.10;;;;;;5033100;28;19919;-72
2022/07/03 10:02:55;;;;;;;;;;;27.70;70.00;;;;;;5033004;28;20293;-71
2022/07/03 10:05:21;;;;;;;;;;;27.80;70.50;;;;;;5018983;28;19982;-80
2022/07/03 10:07:55;;;;;;;;;;;27.70;73.20;;;;;;5028869;28;19915;-73
2022/07/03 10:10:22;;;;;;;;;;;27.90;72.10;;;;;;5021282;28;19913;-73
2022/07/03 10:12:51;;;;;;;;;;;28.30;71.50;;;;;;5029025;28;20274;-73
2022/07/03 10:15:17;;;;;;;;;;;28.20;69.80;;;;;;5032912;28;19960;-73
2022/07/03 10:17:46;;;;;;;;;;;28.20;69.90;;;;;;5033193;28;19928;-73
2022/07/03 10:20:13;;;;;;;;;;;28.30;71.00;;;;;;5033310;28;19925;-73
2022/07/03 10:22:45;;;;;;;;;;;28.30;71.00;;;;;;5018917;28;20216;-73
2022/07/03 10:25:10;;;;;;;;;;;28.50;69.80;;;;;;5032681;28;20004;-73
2022/07/03 10:27:36;;;;;;;;;;;28.60;70.40;;;;;;5032599;28;20013;-73
2022/07/03 10:30:02;;;;;;;;;;;28.60;69.60;;;;;;5032670;28;19913;-73
2022/07/03 10:32:28;;;;;;;;;;;29.00;68.40;;;;;;5032750;28;19952;-73
2022/07/03 10:34:53;;;;;;;;;;;29.00;68.10;;;;;;5032867;28;19975;-73
2022/07/03 10:37:20;;;;;;;;;;;29.30;67.90;;;;;;5033220;28;19921;-73
2022/07/03 10:44:45;;;;;;;;;;;29.10;67.30;;;;;;5032467;28;19917;-73
2022/07/03 10:45:28;;;;;;;;;;;29.30;67.50;;;;;;5032589;28;20012;-73
2022/07/03 10:47:56;;;;;;;;;;;29.30;66.10;;;;;;5032403;28;19995;-74
2022/07/03 10:50:22;;;;;;;;;;;29.10;67.20;;;;;;5032026;28;20275;-73
2022/07/03 10:52:48;;;;;;;;;;;29.40;66.50;;;;;;5032724;28;19924;-73
2022/07/03 10:55:14;;;;;;;;;;;29.40;66.80;;;;;;5032241;28;19968;-73
2022/07/03 10:57:41;;;;;;;;;;;29.60;64.90;;;;;;5031771;28;20290;-73
2022/07/03 11:00:16;;;;;;;;;;;29.50;64.70;;;;;;5032092;28;19936;-73
2022/07/03 11:02:43;;;;;;;;;;;29.50;64.90;;;;;;5032960;28;19960;-73
2022/07/03 11:05:11;;;;;;;;;;;29.70;64.50;;;;;;5027477;28;19914;-73
2022/07/03 11:07:46;;;;;;;;;;;29.90;62.40;;;;;;5032294;28;19913;-72
2022/07/03 11:10:12;;;;;;;;;;;30.00;62.90;;;;;;5031957;28;19919;-72
2022/07/03 11:12:56;;;;;;;;;;;30.20;61.70;;;;;;5031998;28;19913;-73
2022/07/03 11:15:25;;;;;;;;;;;30.20;61.80;;;;;;5026609;28;19913;-73
2022/07/03 11:18:11;;;;;;;;;;;30.00;60.90;;;;;;5019248;28;19921;-73
2022/07/03 11:20:48;;;;;;;;;;;30.00;60.50;;;;;;5018500;28;19913;-73
2022/07/03 11:23:26;;;;;;;;;;;29.90;61.80;;;;;;5032189;28;19921;-73
2022/07/03 11:25:53;;;;;;;;;;;30.00;61.40;;;;;;5028063;28;19964;-73
2022/07/03 11:28:34;;;;;;;;;;;30.30;62.50;;;;;;5019952;28;19921;-74
2022/07/03 11:33:40;;;;;;;;;;;30.10;63.50;;;;;;5031722;28;19913;-73
2022/07/03 11:36:05;;;;;;;;;;;30.40;62.60;;;;;;5028901;28;20267;-73
2022/07/03 11:38:31;;;;;;;;;;;30.60;60.90;;;;;;5017348;28;19928;-73
2022/07/03 11:40:58;;;;;;;;;;;30.40;61.80;;;;;;5014799;28;19914;-73
2022/07/03 11:43:23;;;;;;;;;;;30.50;61.50;;;;;;5031054;28;19925;-73
2022/07/03 11:45:49;;;;;;;;;;;30.60;61.10;;;;;;5031412;28;20279;-73
2022/07/03 11:48:17;;;;;;;;;;;30.30;62.30;;;;;;5031290;28;19939;-73
2022/07/03 11:50:43;;;;;;;;;;;30.80;61.20;;;;;;5031761;28;19927;-73
2022/07/03 11:53:15;;;;;;;;;;;30.80;61.70;;;;;;5031783;28;19963;-73
2022/07/03 11:55:47;;;;;;;;;;;30.70;60.10;;;;;;5031526;28;20263;-73
2022/07/03 11:58:13;;;;;;;;;;;30.60;60.50;;;;;;5031517;28;19921;-73
2022/07/03 12:00:39;;;;;;;;;;;30.70;62.00;;;;;;5031386;28;19966;-73
2022/07/03 12:03:04;;;;;;;;;;;30.60;60.20;;;;;;5030076;28;19967;-74
2022/07/03 12:05:30;;;;;;;;;;;30.80;62.40;;;;;;5025226;28;19913;-73
2022/07/03 12:08:05;;;;;;;;;;;30.90;62.30;;;;;;5031252;28;19977;-73
2022/07/03 12:10:40;;;;;;;;;;;31.20;61.40;;;;;;5026381;28;19916;-73
2022/07/03 12:13:19;;;;;;;;;;;30.80;61.70;;;;;;5021299;28;20302;-73
2022/07/03 12:15:46;;;;;;;;;;;30.80;61.60;;;;;;5026948;28;19999;-73
2022/07/03 12:18:11;;;;;;;;;;;31.10;60.80;;;;;;5028629;28;19961;-74
2022/07/03 12:20:37;;;;;;;;;;;31.10;59.70;;;;;;5018200;28;19963;-73
2022/07/03 12:23:02;;;;;;;;;;;30.80;60.50;;;;;;5030633;28;20279;-73
2022/07/03 12:25:29;;;;;;;;;;;31.10;61.10;;;;;;5032243;28;19909;-72
2022/07/03 12:27:55;;;;;;;;;;;30.80;61.70;;;;;;5031898;28;20397;-73
2022/07/03 12:30:27;;;;;;;;;;;30.90;62.90;;;;;;5033374;28;19959;-73
2022/07/03 12:32:53;;;;;;;;;;;31.00;63.40;;;;;;5035296;28;20340;-73
2022/07/03 12:35:25;;;;;;;;;;;30.90;63.30;;;;;;5019172;28;19921;-73
2022/07/03 12:37:51;;;;;;;;;;;30.80;64.20;;;;;;5031191;28;20023;-73
2022/07/03 12:40:18;;;;;;;;;;;31.10;63.50;;;;;;5034870;28;20336;-73
2022/07/03 12:42:48;;;;;;;;;;;31.00;64.30;;;;;;5035154;28;19921;-73
2022/07/03 12:45:15;;;;;;;;;;;31.10;63.70;;;;;;5034835;28;19962;-73
2022/07/03 12:47:41;;;;;;;;;;;31.00;65.90;;;;;;5034717;28;20405;-73
2022/07/03 12:50:07;;;;;;;;;;;31.20;69.10;;;;;;5035018;28;19971;-73
2022/07/03 12:52:33;;;;;;;;;;;31.00;69.30;;;;;;5034672;28;19931;-73
2022/07/03 12:55:00;;;;;;;;;;;31.00;67.60;;;;;;5034521;28;19913;-73
2022/07/03 13:00:17;;;;;;;;;;;31.20;67.60;;;;;;5026024;28;19920;-73
2022/07/03 13:02:44;;;;;;;;;;;31.10;69.30;;;;;;5034489;28;20326;-73
2022/07/03 13:05:19;;;;;;;;;;;31.20;70.00;;;;;;5027136;28;19975;-73
2022/07/03 13:07:46;;;;;;;;;;;31.20;68.90;;;;;;5034408;28;19917;-73
2022/07/03 13:10:12;;;;;;;;;;;31.20;67.00;;;;;;5034452;28;20370;-73
2022/07/03 13:12:52;;;;;;;;;;;31.10;66.70;;;;;;5027037;28;20341;-73
2022/07/03 13:15:21;;;;;;;;;;;31.20;66.30;;;;;;5026307;28;19909;-73
2022/07/03 13:17:52;;;;;;;;;;;31.00;66.80;;;;;;5033884;28;19956;-72
2022/07/03 13:20:18;;;;;;;;;;;31.00;67.80;;;;;;5033548;28;19975;-73
2022/07/03 13:22:44;;;;;;;;;;;30.90;66.70;;;;;;5033807;28;20346;-74
2022/07/03 13:25:09;;;;;;;;;;;30.90;66.20;;;;;;5033728;28;19913;-73
2022/07/03 13:27:35;;;;;;;;;;;30.90;65.60;;;;;;5033842;28;19917;-73
2022/07/03 13:30:00;;;;;;;;;;;30.90;65.30;;;;;;5034227;28;19917;-73
2022/07/03 13:32:26;;;;;;;;;;;31.00;65.90;;;;;;5033740;28;19921;-73
2022/07/03 13:34:52;;;;;;;;;;;31.20;66.30;;;;;;5032643;28;19984;-74
2022/07/03 13:37:17;;;;;;;;;;;31.10;64.30;;;;;;5033653;28;19917;-73
2022/07/03 13:39:43;;;;;;;;;;;31.20;65.20;;;;;;5032718;28;19913;-73
2022/07/03 13:42:10;;;;;;;;;;;31.20;64.90;;;;;;5031808;28;19971;-73
2022/07/03 13:44:36;;;;;;;;;;;31.30;65.10;;;;;;5018259;28;19917;-73
2022/07/03 13:47:02;;;;;;;;;;;31.40;64.80;;;;;;5031043;28;19913;-73
2022/07/03 13:49:28;;;;;;;;;;;31.20;63.50;;;;;;5030774;28;20333;-74
2022/07/03 13:51:53;;;;;;;;;;;31.10;64.60;;;;;;5031936;28;19913;-73
2022/07/03 13:54:19;;;;;;;;;;;31.10;64.10;;;;;;5029704;28;19988;-73
2022/07/03 13:56:44;;;;;;;;;;;31.20;63.80;;;;;;5022395;28;19963;-74
2022/07/03 13:59:11;;;;;;;;;;;31.00;65.30;;;;;;5033260;28;20008;-73
2022/07/03 14:01:37;;;;;;;;;;;30.90;65.80;;;;;;5033988;28;20393;-74
2022/07/03 14:04:03;;;;;;;;;;;31.10;65.90;;;;;;5032301;28;19935;-73
2022/07/03 14:06:28;;;;;;;;;;;31.00;66.30;;;;;;5032858;28;20340;-73
2022/07/03 14:08:54;;;;;;;;;;;31.20;66.80;;;;;;5031002;28;20418;-73
2022/07/03 14:11:20;;;;;;;;;;;31.00;66.20;;;;;;5018205;28;20390;-73
2022/07/03 14:13:45;;;;;;;;;;;31.00;66.20;;;;;;5033778;28;19913;-73
2022/07/03 14:16:12;;;;;;;;;;;31.00;65.50;;;;;;5022512;28;19920;-73
2022/07/03 14:18:37;;;;;;;;;;;31.00;66.00;;;;;;5027346;28;19921;-72
2022/07/03 14:21:05;;;;;;;;;;;31.00;66.20;;;;;;5033254;28;20267;-73
2022/07/03 14:23:32;;;;;;;;;;;30.80;66.50;;;;;;5032932;28;20010;-73
2022/07/03 14:25:58;;;;;;;;;;;30.90;67.00;;;;;;5033210;28;19909;-73
2022/07/03 14:33:49;;;;;;;;;;;30.90;67.80;;;;;;5032276;28;19920;-73
2022/07/03 14:36:15;;;;;;;;;;;30.70;67.40;;;;;;5028722;28;19921;-73
2022/07/03 14:38:41;;;;;;;;;;;30.50;67.80;;;;;;5032659;28;19929;-73